createdAt,value
2022-12-08T00:01:19.806Z,100482.56
2022-12-08T00:03:47.558Z,100492.69
2022-12-08T00:06:42.623Z,100490.69
2022-12-08T00:09:24.287Z,100485.53
2022-12-08T00:12:02.318Z,100476.94
2022-12-08T00:14:35.355Z,100478.38
2022-12-08T00:17:03.463Z,100471.31
2022-12-08T00:19:31.452Z,100478.53
2022-12-08T00:21:59.205Z,100476.16
2022-12-08T00:24:31.422Z,100477.22
2022-12-08T00:26:58.846Z,100476.63
2022-12-08T00:29:25.936Z,100475.88
2022-12-08T00:31:53.194Z,100478.53
2022-12-08T00:34:21.103Z,100483.00
2022-12-08T00:36:48.241Z,100489.78
2022-12-08T00:39:16.450Z,100486.34
2022-12-08T00:42:03.218Z,100487.16
2022-12-08T00:44:30.336Z,100484.59
2022-12-08T00:46:57.741Z,100486.69
2022-12-08T00:49:24.966Z,100484.94
2022-12-08T00:51:52.378Z,100493.25
2022-12-08T00:54:20.909Z,100496.69
2022-12-08T00:56:48.081Z,100493.16
2022-12-08T00:59:15.316Z,100485.47
2022-12-08T01:01:44.501Z,100485.47
2022-12-08T01:04:15.576Z,100488.00
2022-12-08T01:06:44.128Z,100482.44
2022-12-08T01:09:13.024Z,100481.34
2022-12-08T01:11:40.123Z,100485.63
2022-12-08T01:14:07.579Z,100486.03
2022-12-08T01:16:36.048Z,100483.16
2022-12-08T01:19:03.927Z,100482.53
2022-12-08T01:21:31.270Z,100477.50
2022-12-08T01:24:00.315Z,100486.12
2022-12-08T01:26:27.554Z,100485.16
2022-12-08T01:28:54.992Z,100491.22
2022-12-08T01:31:22.788Z,100481.19
2022-12-08T01:33:50.455Z,100487.19
2022-12-08T01:36:26.167Z,100494.94
2022-12-08T01:38:54.134Z,100487.41
2022-12-08T01:41:24.006Z,100484.91
2022-12-08T01:43:56.787Z,100478.94
2022-12-08T01:46:25.020Z,100477.31
2022-12-08T01:48:55.869Z,100471.59
2022-12-08T01:51:23.159Z,100478.53
2022-12-08T01:53:50.777Z,100481.16
2022-12-08T01:56:28.509Z,100471.91
2022-12-08T01:58:55.997Z,100470.87
2022-12-08T02:01:23.863Z,100466.69
2022-12-08T02:04:02.477Z,100459.81
2022-12-08T02:06:33.359Z,100463.28
2022-12-08T02:09:01.577Z,100459.34
2022-12-08T02:11:29.526Z,100464.41
2022-12-08T02:13:57.885Z,100452.47
2022-12-08T02:16:31.337Z,100453.44
2022-12-08T02:19:30.313Z,100457.69
2022-12-08T02:21:57.059Z,100459.25
2022-12-08T02:24:41.343Z,100459.22
2022-12-08T02:27:18.525Z,100456.66
2022-12-08T02:30:08.307Z,100449.12
2022-12-08T02:33:00.417Z,100450.87
2022-12-08T02:35:46.436Z,100450.78
2022-12-08T02:38:35.117Z,100452.50
2022-12-08T02:41:08.611Z,100454.97
2022-12-08T02:43:41.994Z,100450.59
2022-12-08T02:46:12.132Z,100448.72
2022-12-08T02:48:39.550Z,100442.72
2022-12-08T02:51:06.602Z,100444.28
2022-12-08T02:53:34.862Z,100445.88
2022-12-08T02:56:25.428Z,100446.72
2022-12-08T02:59:31.156Z,100450.84
2022-12-08T03:02:04.505Z,100447.47
2022-12-08T03:04:48.788Z,100450.81
2022-12-08T03:07:22.422Z,100449.63
2022-12-08T03:10:00.243Z,100442.66
2022-12-08T03:12:48.839Z,100436.81
2022-12-08T03:15:19.113Z,100434.03
2022-12-08T03:17:50.192Z,100437.03
2022-12-08T03:20:21.171Z,100428.56
2022-12-08T03:22:49.793Z,100435.47
2022-12-08T03:25:21.575Z,100432.03
2022-12-08T03:27:49.306Z,100426.16
2022-12-08T03:30:16.570Z,100427.91
2022-12-08T03:32:49.409Z,100428.75
2022-12-08T03:35:23.020Z,100420.16
2022-12-08T03:37:50.467Z,100420.00
2022-12-08T03:40:19.789Z,100423.41
2022-12-08T03:42:46.906Z,100421.50
2022-12-08T03:45:13.973Z,100417.06
2022-12-08T03:47:41.302Z,100416.06
2022-12-08T03:50:08.689Z,100416.97
2022-12-08T03:52:35.761Z,100417.88
2022-12-08T03:55:03.349Z,100420.13
2022-12-08T03:57:30.421Z,100409.28
2022-12-08T03:59:57.553Z,100421.22
2022-12-08T04:02:25.026Z,100416.22
2022-12-08T04:04:52.433Z,100414.59
2022-12-08T04:07:19.510Z,100413.37
2022-12-08T04:09:46.572Z,100403.06
2022-12-08T04:12:13.930Z,100405.91
2022-12-08T04:14:41.020Z,100397.44
2022-12-08T04:17:08.066Z,100400.75
2022-12-08T04:19:35.453Z,100401.78
2022-12-08T04:22:02.563Z,100394.97
2022-12-08T04:24:29.601Z,100402.63
2022-12-08T04:26:56.990Z,100412.78
2022-12-08T04:29:24.065Z,100394.69
2022-12-08T04:31:51.181Z,100397.38
2022-12-08T04:34:18.589Z,100400.00
2022-12-08T04:36:45.647Z,100404.38
2022-12-08T04:39:12.803Z,100401.78
2022-12-08T04:41:40.170Z,100404.22
2022-12-08T04:44:07.244Z,100405.06
2022-12-08T04:46:35.189Z,100410.37
2022-12-08T04:49:05.226Z,100402.75
2022-12-08T04:51:32.283Z,100404.38
2022-12-08T04:53:59.340Z,100404.25
2022-12-08T04:56:26.691Z,100400.16
2022-12-08T04:58:53.750Z,100394.06
2022-12-08T05:01:20.926Z,100402.53
2022-12-08T05:03:48.374Z,100407.66
2022-12-08T05:06:15.512Z,100405.75
2022-12-08T05:08:43.416Z,100398.78
2022-12-08T05:11:11.782Z,100399.44
2022-12-08T05:13:38.928Z,100396.53
2022-12-08T05:16:11.741Z,100386.56
2022-12-08T05:18:40.421Z,100389.19
2022-12-08T05:21:08.231Z,100392.69
2022-12-08T05:23:35.459Z,100395.38
2022-12-08T05:26:02.825Z,100394.25
2022-12-08T05:28:41.300Z,100382.84
2022-12-08T05:31:10.176Z,100382.72
2022-12-08T05:33:37.311Z,100372.69
2022-12-08T05:36:04.528Z,100373.81
2022-12-08T05:38:31.858Z,100385.28
2022-12-08T05:40:58.938Z,100376.72
2022-12-08T05:43:27.054Z,100389.75
2022-12-08T05:45:54.637Z,100386.41
2022-12-08T05:48:21.834Z,100378.63
2022-12-08T05:50:51.365Z,100385.53
2022-12-08T05:53:20.129Z,100388.22
2022-12-08T05:55:47.472Z,100385.72
2022-12-08T05:58:17.450Z,100389.72
2022-12-08T06:00:46.604Z,100382.69
2022-12-08T06:03:15.303Z,100378.44
2022-12-08T06:05:43.624Z,100388.84
2022-12-08T06:08:10.879Z,100383.72
2022-12-08T06:10:39.900Z,100384.34
2022-12-08T06:13:07.029Z,100385.28
2022-12-08T06:15:35.344Z,100385.34
2022-12-08T06:18:02.734Z,100382.44
2022-12-08T06:20:29.814Z,100387.75
2022-12-08T06:22:57.334Z,100388.00
2022-12-08T06:25:25.124Z,100386.09
2022-12-08T06:27:52.462Z,100391.91
2022-12-08T06:30:19.538Z,100397.13
2022-12-08T06:32:47.120Z,100397.38
2022-12-08T06:35:14.185Z,100404.25
2022-12-08T06:37:41.252Z,100398.78
2022-12-08T06:40:09.042Z,100398.16
2022-12-08T06:42:45.125Z,100404.94
2022-12-08T06:45:17.101Z,100399.56
2022-12-08T06:47:44.231Z,100408.72
2022-12-08T06:50:12.798Z,100402.87
2022-12-08T06:52:51.781Z,100400.38
2022-12-08T06:55:57.387Z,100402.94
2022-12-08T06:58:13.594Z,100395.12
2022-12-08T07:00:41.948Z,100399.81
2022-12-08T07:03:10.331Z,100405.94
2022-12-08T07:05:38.160Z,100412.75
2022-12-08T07:08:06.961Z,100412.91
2022-12-08T07:10:34.647Z,100415.22
2022-12-08T07:13:02.418Z,100416.16
2022-12-08T07:15:29.494Z,100422.75
2022-12-08T07:18:00.069Z,100415.34
2022-12-08T07:20:29.254Z,100413.81
2022-12-08T07:22:56.410Z,100415.63
2022-12-08T07:25:23.805Z,100417.47
2022-12-08T07:27:52.665Z,100407.44
2022-12-08T07:30:19.872Z,100402.31
2022-12-08T07:32:46.929Z,100413.22
2022-12-08T07:35:14.320Z,100413.37
2022-12-08T07:37:41.395Z,100411.25
2022-12-08T07:40:09.798Z,100405.06
2022-12-08T07:42:37.159Z,100399.47
2022-12-08T07:45:04.540Z,100395.41
2022-12-08T07:47:31.664Z,100397.50
2022-12-08T07:49:58.992Z,100392.16
2022-12-08T07:52:26.054Z,100406.53
2022-12-08T07:54:53.158Z,100402.34
2022-12-08T07:57:20.549Z,100406.53
2022-12-08T07:59:47.625Z,100387.16
2022-12-08T08:02:24.818Z,100390.81
2022-12-08T08:04:53.425Z,100390.66
2022-12-08T08:07:20.706Z,100393.19
2022-12-08T08:09:47.752Z,100388.12
2022-12-08T08:12:30.679Z,100387.06
2022-12-08T08:14:59.754Z,100393.19
2022-12-08T08:17:28.016Z,100384.53
2022-12-08T08:19:55.256Z,100393.94
2022-12-08T08:22:22.338Z,100392.09
2022-12-08T08:24:49.775Z,100391.28
2022-12-08T08:27:16.995Z,100383.03
2022-12-08T08:29:44.268Z,100383.50
2022-12-08T08:32:11.649Z,100388.22
2022-12-08T08:34:38.848Z,100380.03
2022-12-08T08:37:05.981Z,100378.06
2022-12-08T08:39:33.377Z,100371.41
2022-12-08T08:42:00.470Z,100371.34
2022-12-08T08:44:27.782Z,100378.34
2022-12-08T08:46:55.261Z,100386.97
2022-12-08T08:49:22.457Z,100378.41
2022-12-08T08:51:49.658Z,100380.75
2022-12-08T08:54:17.030Z,100380.03
2022-12-08T08:56:44.143Z,100375.59
2022-12-08T08:59:11.378Z,100367.13
2022-12-08T09:01:38.830Z,100383.63
2022-12-08T09:04:06.220Z,100383.94
2022-12-08T09:06:33.389Z,100381.25
2022-12-08T09:09:00.821Z,100376.78
2022-12-08T09:11:27.925Z,100360.06
2022-12-08T09:13:55.253Z,100364.66
2022-12-08T09:16:23.119Z,100373.06
2022-12-08T09:18:50.900Z,100368.03
2022-12-08T09:21:23.726Z,100370.16
2022-12-08T09:23:52.994Z,100375.66
2022-12-08T09:26:22.499Z,100376.78
2022-12-08T09:28:53.944Z,100370.41
2022-12-08T09:31:22.512Z,100368.50
2022-12-08T09:33:53.195Z,100362.87
2022-12-08T09:36:20.520Z,100348.00
2022-12-08T09:38:54.690Z,100342.97
2022-12-08T09:41:41.812Z,100343.31
2022-12-08T09:44:50.320Z,100345.03
2022-12-08T09:47:20.537Z,100347.78
2022-12-08T09:50:00.533Z,100344.81
2022-12-08T09:52:34.842Z,100349.53
2022-12-08T09:55:06.568Z,100349.81
2022-12-08T09:57:33.778Z,100334.47
2022-12-08T10:00:05.524Z,100334.88
2022-12-08T10:02:33.655Z,100338.34
2022-12-08T10:05:00.910Z,100335.13
2022-12-08T10:08:03.337Z,100335.50
2022-12-08T10:10:43.102Z,100339.72
2022-12-08T10:13:46.584Z,100332.97
2022-12-08T10:16:30.067Z,100324.41
2022-12-08T10:19:11.452Z,100325.44
2022-12-08T10:21:40.740Z,100327.50
2022-12-08T10:24:39.469Z,100326.38
2022-12-08T10:27:11.562Z,100314.78
2022-12-08T10:29:40.346Z,100303.56
2022-12-08T10:32:19.338Z,100305.59
2022-12-08T10:35:22.386Z,100299.78
2022-12-08T10:38:01.564Z,100292.94
2022-12-08T10:40:36.898Z,100286.50
2022-12-08T10:43:14.942Z,100286.62
2022-12-08T10:45:45.032Z,100271.97
2022-12-08T10:48:21.858Z,100261.09
2022-12-08T10:50:56.446Z,100264.00
2022-12-08T10:53:29.644Z,100264.91
2022-12-08T10:56:02.909Z,100258.81
2022-12-08T10:58:46.100Z,100257.44
2022-12-08T11:01:17.839Z,100252.34
2022-12-08T11:03:46.576Z,100248.72
2022-12-08T11:06:37.243Z,100238.53
2022-12-08T11:09:24.769Z,100225.59
2022-12-08T11:11:53.871Z,100213.00
2022-12-08T11:14:34.857Z,100197.53
2022-12-08T11:17:08.093Z,100203.19
2022-12-08T11:19:39.836Z,100197.34
2022-12-08T11:22:24.293Z,100193.22
2022-12-08T11:25:08.389Z,100187.34
2022-12-08T11:27:36.844Z,100179.91
2022-12-08T11:30:15.008Z,100176.13
2022-12-08T11:32:44.843Z,100171.84
2022-12-08T11:35:26.815Z,100167.13
2022-12-08T11:38:03.334Z,100167.72
2022-12-08T11:40:44.192Z,100163.63
2022-12-08T11:43:46.189Z,100161.50
2022-12-08T11:46:18.807Z,100156.34
2022-12-08T11:49:06.275Z,100143.69
2022-12-08T11:51:42.909Z,100148.41
2022-12-08T11:54:22.169Z,100150.06
2022-12-08T11:56:52.725Z,100157.41
2022-12-08T11:59:41.801Z,100154.56
2022-12-08T12:02:15.315Z,100150.25
2022-12-08T12:05:10.759Z,100152.53
2022-12-08T12:07:44.562Z,100147.66
2022-12-08T12:10:18.027Z,100148.72
2022-12-08T12:13:16.017Z,100143.38
2022-12-08T12:16:17.096Z,100145.16
2022-12-08T12:18:52.035Z,100136.97
2022-12-08T12:21:22.650Z,100138.03
2022-12-08T12:23:52.782Z,100146.19
2022-12-08T12:26:22.716Z,100155.91
2022-12-08T12:28:52.657Z,100164.91
2022-12-08T12:31:31.837Z,100155.34
2022-12-08T12:34:16.845Z,100154.06
2022-12-08T12:36:56.803Z,100145.81
2022-12-08T12:39:32.097Z,100138.44
2022-12-08T12:42:03.951Z,100134.19
2022-12-08T12:44:33.963Z,100119.84
2022-12-08T12:47:03.150Z,100128.66
2022-12-08T12:49:39.460Z,100120.16
2022-12-08T12:52:15.759Z,100115.34
2022-12-08T12:54:43.698Z,100118.28
2022-12-08T12:57:10.959Z,100105.09
2022-12-08T12:59:47.823Z,100103.88
2022-12-08T13:02:32.933Z,100105.13
2022-12-08T13:05:02.754Z,100101.84
2022-12-08T13:07:33.478Z,100103.47
2022-12-08T13:10:09.675Z,100098.59
2022-12-08T13:12:37.074Z,100091.34
2022-12-08T13:15:06.439Z,100092.84
2022-12-08T13:17:36.487Z,100093.09
2022-12-08T13:20:06.937Z,100093.59
2022-12-08T13:22:50.134Z,100090.22
2022-12-08T13:25:46.444Z,100086.31
2022-12-08T13:28:16.187Z,100087.25
2022-12-08T13:30:50.681Z,100096.53
2022-12-08T13:33:39.692Z,100093.53
2022-12-08T13:36:23.652Z,100095.13
2022-12-08T13:38:55.284Z,100103.09
2022-12-08T13:41:29.959Z,100096.34
2022-12-08T13:47:32.402Z,100106.13
2022-12-08T13:59:07.369Z,100100.63
2022-12-08T14:01:44.947Z,100099.66
2022-12-08T14:04:42.589Z,100095.97
2022-12-08T14:07:11.371Z,100094.50
2022-12-08T14:09:39.753Z,100103.97
2022-12-08T14:12:13.188Z,100097.41
2022-12-08T14:17:29.525Z,100088.47
2022-12-08T14:20:06.853Z,100102.38
2022-12-08T14:22:38.890Z,100098.41
2022-12-08T14:25:10.195Z,100105.63
2022-12-08T14:27:37.939Z,100094.41
2022-12-08T14:30:14.304Z,100100.63
2022-12-08T14:32:48.537Z,100099.84
2022-12-08T14:35:20.739Z,100102.97
2022-12-08T14:37:49.380Z,100106.56
2022-12-08T14:40:37.537Z,100100.63
2022-12-08T14:43:07.732Z,100105.31
2022-12-08T14:45:35.094Z,100104.09
2022-12-08T14:48:27.613Z,100098.66
2022-12-08T14:51:05.991Z,100095.28
2022-12-08T14:53:39.745Z,100088.91
2022-12-08T14:56:09.601Z,100099.03
2022-12-08T14:58:36.733Z,100098.91
2022-12-08T15:01:06.554Z,100088.88
2022-12-08T15:03:34.377Z,100096.69
2022-12-08T15:06:05.883Z,100097.03
2022-12-08T15:08:33.437Z,100092.22
2022-12-08T15:11:21.708Z,100085.94
2022-12-08T15:13:51.239Z,100093.22
2022-12-08T15:16:26.231Z,100090.00
2022-12-08T15:19:16.957Z,100083.63
2022-12-08T15:21:45.423Z,100086.31
2022-12-08T15:24:13.491Z,100081.59
2022-12-08T15:26:50.750Z,100076.38
2022-12-08T15:29:27.402Z,100081.72
2022-12-08T15:31:57.361Z,100082.72
2022-12-08T15:34:25.106Z,100076.06
2022-12-08T15:36:53.903Z,100073.69
2022-12-08T15:39:39.305Z,100078.00
2022-12-08T15:42:11.599Z,100069.06
2022-12-08T15:44:39.122Z,100067.87
2022-12-08T15:47:16.445Z,100077.09
2022-12-08T15:49:44.153Z,100085.75
2022-12-08T15:52:17.023Z,100081.34
2022-12-08T15:54:44.106Z,100094.31
2022-12-08T15:57:30.022Z,100078.41
2022-12-08T16:00:19.046Z,100077.44
2022-12-08T16:05:50.025Z,100057.41
2022-12-08T16:08:47.544Z,100058.31
2022-12-08T16:12:04.757Z,100053.91
2022-12-08T16:15:38.753Z,100050.94
2022-12-08T16:17:14.542Z,100059.78
2022-12-08T16:19:42.084Z,100041.59
2022-12-08T16:22:51.656Z,100034.81
2022-12-08T16:25:17.769Z,100040.47
2022-12-08T16:28:17.247Z,100032.94
2022-12-08T16:30:34.174Z,100037.53
2022-12-08T16:33:01.598Z,100055.81
2022-12-08T16:35:30.281Z,100043.75
2022-12-08T16:37:58.059Z,100052.53
2022-12-08T16:40:28.265Z,100067.28
2022-12-08T16:42:55.309Z,100065.53
2022-12-08T16:45:25.267Z,100064.34
2022-12-08T16:47:57.163Z,100070.91
2022-12-08T16:50:32.838Z,100067.37
2022-12-08T16:53:05.486Z,100070.09
2022-12-08T16:55:33.665Z,100079.75
2022-12-08T16:58:01.075Z,100075.59
2022-12-08T17:00:29.347Z,100058.47
2022-12-08T17:02:56.923Z,100056.72
2022-12-08T17:05:24.939Z,100063.50
2022-12-08T17:07:53.011Z,100070.19
2022-12-08T17:10:23.593Z,100075.13
2022-12-08T17:12:51.170Z,100086.00
2022-12-08T17:15:21.988Z,100088.19
2022-12-08T17:17:49.591Z,100081.88
2022-12-08T17:20:19.937Z,100080.53
2022-12-08T17:22:47.189Z,100071.78
2022-12-08T17:25:14.754Z,100066.34
2022-12-08T17:27:42.386Z,100073.28
2022-12-08T17:30:12.534Z,100063.63
2022-12-08T17:32:39.915Z,100066.78
2022-12-08T17:35:07.785Z,100067.25
2022-12-08T17:37:35.320Z,100071.75
2022-12-08T17:40:03.039Z,100059.88
2022-12-08T17:42:30.522Z,100054.16
2022-12-08T17:44:57.590Z,100047.66
2022-12-08T17:47:24.957Z,100047.19
2022-12-08T17:49:52.170Z,100046.41
2022-12-08T17:52:19.227Z,100040.56
2022-12-08T17:54:46.607Z,100037.78
2022-12-08T17:57:13.769Z,100042.50
2022-12-08T17:59:40.838Z,100054.22
2022-12-08T18:02:12.084Z,100052.16
2022-12-08T18:04:39.613Z,100053.66
2022-12-08T18:07:06.660Z,100055.69
2022-12-08T18:09:33.953Z,100046.63
2022-12-08T18:12:01.370Z,100058.09
2022-12-08T18:14:28.514Z,100062.78
2022-12-08T18:16:55.678Z,100073.88
2022-12-08T18:19:23.229Z,100078.44
2022-12-08T18:21:50.410Z,100073.28
2022-12-08T18:24:22.234Z,100068.28
2022-12-08T18:26:52.116Z,100083.75
2022-12-08T18:29:20.564Z,100075.75
2022-12-08T18:31:47.891Z,100064.88
2022-12-08T18:34:15.261Z,100064.72
2022-12-08T18:36:42.378Z,100070.34
2022-12-08T18:39:29.874Z,100070.69
2022-12-08T18:41:58.480Z,100060.22
2022-12-08T18:44:25.641Z,100065.03
2022-12-08T18:46:52.709Z,100061.69
2022-12-08T18:49:20.467Z,100069.62
2022-12-08T18:51:47.791Z,100068.53
2022-12-08T18:54:14.834Z,100061.50
2022-12-08T18:56:42.183Z,100057.06
2022-12-08T18:59:11.461Z,100068.53
2022-12-08T19:01:41.304Z,100069.06
2022-12-08T19:04:27.924Z,100060.78
2022-12-08T19:06:56.432Z,100067.94
2022-12-08T19:09:26.031Z,100071.09
2022-12-08T19:11:53.160Z,100066.97
2022-12-08T19:14:25.856Z,100073.81
2022-12-08T19:16:55.119Z,100063.63
2022-12-08T19:19:22.203Z,100056.81
2022-12-08T19:21:49.559Z,100057.06
2022-12-08T19:24:16.916Z,100059.22
2022-12-08T19:26:44.206Z,100054.03
2022-12-08T19:29:11.545Z,100056.16
2022-12-08T19:31:39.276Z,100063.91
2022-12-08T19:34:06.807Z,100061.63
2022-12-08T19:36:35.672Z,100060.28
2022-12-08T19:39:22.696Z,100066.28
2022-12-08T19:42:09.200Z,100074.78
2022-12-08T19:44:54.723Z,100071.37
2022-12-08T19:47:26.697Z,100065.03
2022-12-08T19:49:55.105Z,100064.69
2022-12-08T19:52:22.387Z,100063.13
2022-12-08T19:54:51.417Z,100071.00
2022-12-08T19:57:20.466Z,100062.22
2022-12-08T19:59:50.464Z,100060.31
2022-12-08T20:02:22.169Z,100062.38
2022-12-08T20:04:49.671Z,100059.19
2022-12-08T20:07:16.744Z,100043.25
2022-12-08T20:09:43.832Z,100042.69
2022-12-08T20:12:11.181Z,100036.50
2022-12-08T20:14:42.706Z,100036.34
2022-12-08T20:17:13.158Z,100034.19
2022-12-08T20:19:40.371Z,100044.50
2022-12-08T20:22:07.452Z,100052.72
2022-12-08T20:24:35.860Z,100046.81
2022-12-08T20:27:02.969Z,100059.78
2022-12-08T20:29:30.033Z,100051.72
2022-12-08T20:31:57.467Z,100051.97
2022-12-08T20:34:24.684Z,100047.41
2022-12-08T20:36:51.874Z,100052.81
2022-12-08T20:39:19.303Z,100061.31
2022-12-08T20:41:46.734Z,100053.47
2022-12-08T20:44:13.882Z,100048.94
2022-12-08T20:46:46.270Z,100044.75
2022-12-08T20:49:16.384Z,100063.19
2022-12-08T20:51:44.497Z,100060.28
2022-12-08T20:54:11.942Z,100067.22
2022-12-08T20:56:44.755Z,100071.78
2022-12-08T20:59:18.121Z,100068.97
2022-12-08T21:01:45.509Z,100073.09
2022-12-08T21:04:13.368Z,100071.69
2022-12-08T21:06:40.931Z,100067.69
2022-12-08T21:09:08.794Z,100068.53
2022-12-08T21:11:36.261Z,100075.34
2022-12-08T21:14:03.869Z,100077.50
2022-12-08T21:16:31.091Z,100068.63
2022-12-08T21:18:58.314Z,100059.81
2022-12-08T21:21:25.726Z,100057.44
2022-12-08T21:23:53.567Z,100042.59
2022-12-08T21:26:22.057Z,100035.34
2022-12-08T21:28:49.484Z,100043.50
2022-12-08T21:31:19.111Z,100038.81
2022-12-08T21:33:46.454Z,100055.75
2022-12-08T21:36:16.810Z,100054.03
2022-12-08T21:38:44.698Z,100054.88
2022-12-08T21:41:14.491Z,100051.06
2022-12-08T21:43:42.495Z,100045.81
2022-12-08T21:46:17.128Z,100051.88
2022-12-08T21:48:44.713Z,100055.81
2022-12-08T21:51:11.999Z,100045.72
2022-12-08T21:53:39.289Z,100042.34
2022-12-08T21:56:10.006Z,100054.63
2022-12-08T21:58:39.509Z,100060.13
2022-12-08T22:01:08.602Z,100056.66
2022-12-08T22:03:37.662Z,100051.25
2022-12-08T22:06:09.882Z,100039.78
2022-12-08T22:08:37.433Z,100048.53
2022-12-08T22:11:05.212Z,100047.72
2022-12-08T22:13:36.651Z,100054.31
2022-12-08T22:16:08.613Z,100061.16
2022-12-08T22:18:36.536Z,100051.53
2022-12-08T22:21:12.135Z,100066.09
2022-12-08T22:23:39.605Z,100072.00
2022-12-08T22:26:08.366Z,100064.88
2022-12-08T22:28:41.162Z,100067.72
2022-12-08T22:31:22.300Z,100059.94
2022-12-08T22:33:50.574Z,100057.13
2022-12-08T22:36:24.244Z,100055.91
2022-12-08T22:38:51.925Z,100053.56
2022-12-08T22:41:19.864Z,100051.00
2022-12-08T22:43:48.054Z,100056.97
2022-12-08T22:46:20.813Z,100052.03
2022-12-08T22:48:48.744Z,100052.62
2022-12-08T22:51:16.131Z,100057.69
2022-12-08T22:53:43.887Z,100049.53
2022-12-08T22:56:12.692Z,100051.66
2022-12-08T22:58:40.637Z,100044.00
2022-12-08T23:01:08.507Z,100053.16
2022-12-08T23:03:36.230Z,100048.19
2022-12-08T23:06:12.391Z,100055.56
2022-12-08T23:08:40.095Z,100048.75
2022-12-08T23:11:07.293Z,100046.28
2022-12-08T23:13:34.605Z,100055.75
2022-12-08T23:16:01.984Z,100052.03
2022-12-08T23:18:29.048Z,100056.97
2022-12-08T23:20:56.259Z,100067.13
2022-12-08T23:23:23.615Z,100053.31
2022-12-08T23:25:50.666Z,100050.34
2022-12-08T23:28:17.724Z,100054.44
2022-12-08T23:30:45.232Z,100052.28
2022-12-08T23:33:12.656Z,100052.28
2022-12-08T23:35:39.827Z,100052.28
2022-12-08T23:38:07.171Z,100054.78
2022-12-08T23:40:34.674Z,100039.16
2022-12-08T23:43:02.033Z,100044.00
2022-12-08T23:45:29.662Z,100046.25
2022-12-08T23:47:56.860Z,100036.91
2022-12-08T23:50:24.030Z,100030.41
2022-12-08T23:52:51.459Z,100031.50
2022-12-08T23:55:18.499Z,100022.78
2022-12-08T23:57:45.587Z,100019.13
